Bavaria

Go HERE for most recent data if this page is not up to date.

Jump to table bottom
Date/Time Temp deg F RH % Wind MPH Wind Max Wind Dir Snow 24hr inches Snow Depth inches
12/18/17 15:00 22.5 78 21 30 W - 262 2.8 "NAN"
12/18/17 14:00 22.6 75 25 32 SW - 237 2.8 "NAN"
12/18/17 13:00 23.1 73 28 37 W - 256 2.8 "NAN"
12/18/17 12:00 23.4 76 28 43 W - 252 3.7 "NAN"
12/18/17 11:00 22.9 82 29 39 SW - 246 3.1 "NAN"
12/18/17 10:00 22.1 90 28 35 W - 263 3.2 "NAN"
12/18/17 09:00 21.5 90 30 39 SW - 247 3.2 "NAN"
12/18/17 08:00 21.4 90 25 35 W - 252 3.0 "NAN"
12/18/17 07:00 21.2 90 25 39 SW - 241 3.2 "NAN"
12/18/17 06:00 21.8 91 26 40 W - 260 3.1 "NAN"
12/18/17 05:00 22.1 91 20 33 SW - 235 2.3 "NAN"
12/18/17 04:00 22.6 91 21 33 W - 281 1.7 "NAN"
12/18/17 03:00 23.6 91 17 26 W - 255 0.6 "NAN"
12/18/17 02:00 23.6 91 14 22 W - 266 0.5 "NAN"
12/18/17 01:00 23.0 91 13 19 SW - 243 0.4 "NAN"
12/18/17 00:00 22.0 91 13 21 SW - 235 0.1 "NAN"
12/17/17 23:00 20.6 90 11 18 W - 273 0.0 "NAN"
12/17/17 22:00 19.9 90 10 15 SW - 245 0.0 "NAN"
12/17/17 21:00 18.4 89 11 15 SW - 222 -0.0 "NAN"
12/17/17 20:00 18.1 89 11 15 W - 281 -0.0 "NAN"
12/17/17 19:00 17.9 89 12 17 W - 265 -0.0 "NAN"
12/17/17 18:00 19.4 90 11 17 W - 276 0.0 "NAN"
12/17/17 17:00 18.3 89 10 15 W - 271 0.0 "NAN"
12/17/17 16:00 16.9 89 9 15 W - 255 -0.0 "NAN"
12/17/17 15:00 17.5 89 9 16 W - 264 -0.0 "NAN"
12/17/17 14:00 16.0 87 8 15 W - 263 0.8 "NAN"
12/17/17 13:00 16.5 79 8 15 SW - 242 0.7 "NAN"
12/17/17 12:00 16.1 84 13 18 W - 275 0.9 "NAN"
12/17/17 11:00 13.2 80 10 18 W - 267 0.8 "NAN"
12/17/17 10:00 13.2 75 13 23 W - 249 0.9 "NAN"
12/17/17 09:00 12.1 54 13 23 S - 197 0.8 "NAN"
12/17/17 08:00 10.8 39 15 23 W - 279 0.9 "NAN"
12/17/17 07:00 10.3 38 14 20 SW - 246 0.1 "NAN"
12/17/17 06:00 7.6 40 16 21 NW - 307 0.6 "NAN"
12/17/17 05:00 6.3 46 17 21 W - 292 0.6 "NAN"
12/17/17 04:00 3.1 81 16 20 NW - 306 0.5 "NAN"
12/17/17 03:00 4.4 83 11 17 NW - 305 0.3 "NAN"
12/17/17 02:00 5.5 84 12 16 NW - 302 0.3 "NAN"
12/17/17 01:00 6.9 84 15 21 W - 292 0.3 "NAN"
12/17/17 00:00 6.6 84 13 18 NW - 313 0.2 "NAN"
.